Time;durP1;ratioP1;P1;durP2;ratioP2;P2;SDS_P1;SDS_P2;PMS_P1;PMS_P2;Temp;Humidity;BMP_temperature;BMP_pressure;BME280_temperature;BME280_humidity;BME280_pressure;Samples;Min_cycle;Max_cycle;Signal;HPM_P1;HPM_P2
2022/04/14 00:00:36;;;;;;;6.35;2.13;;;;;;;;;;5104279;27;20096;-71
2022/04/14 00:03:02;;;;;;;6.75;2.38;;;;;;;;;;5104337;27;20442;-71
2022/04/14 00:05:28;;;;;;;6.10;2.03;;;;;;;;;;5087104;28;20050;-71
2022/04/14 00:07:54;;;;;;;6.15;2.03;;;;;;;;;;5066798;28;20044;-71
2022/04/14 00:10:20;;;;;;;6.25;2.13;;;;;;;;;;5084360;28;20155;-71
2022/04/14 00:12:48;;;;;;;5.50;1.92;;;;;;;;;;5084228;28;20047;-71
2022/04/14 00:15:14;;;;;;;5.82;2.03;;;;;;;;;;5067082;28;20150;-71
2022/04/14 00:17:40;;;;;;;5.97;2.33;;;;;;;;;;5083265;28;20046;-71
2022/04/14 00:20:07;;;;;;;5.35;2.10;;;;;;;;;;5083879;27;20084;-71
2022/04/14 00:22:33;;;;;;;5.03;2.05;;;;;;;;;;5104178;27;20193;-71
2022/04/14 00:24:59;;;;;;;5.78;2.05;;;;;;;;;;5121773;27;20447;-72
2022/04/14 00:27:25;;;;;;;5.47;2.20;;;;;;;;;;5121012;27;20192;-72
2022/04/14 00:29:51;;;;;;;5.07;2.10;;;;;;;;;;5121380;27;20192;-71
2022/04/14 00:32:17;;;;;;;5.10;2.00;;;;;;;;;;5104098;27;20132;-72
2022/04/14 00:34:43;;;;;;;5.78;2.08;;;;;;;;;;5121093;27;20043;-72
2022/04/14 00:37:10;;;;;;;4.65;1.92;;;;;;;;;;5121022;27;20121;-72
2022/04/14 00:39:36;;;;;;;5.97;2.20;;;;;;;;;;5121567;27;20054;-72
2022/04/14 00:42:12;;;;;;;5.30;2.08;;;;;;;;;;5121419;27;20046;-71
2022/04/14 00:44:38;;;;;;;5.85;2.20;;;;;;;;;;5121009;27;20084;-72
2022/04/14 00:47:05;;;;;;;5.32;2.25;;;;;;;;;;5120989;27;20586;-72
2022/04/14 00:49:31;;;;;;;5.60;2.20;;;;;;;;;;5121002;27;20053;-71
2022/04/14 00:52:00;;;;;;;6.20;1.95;;;;;;;;;;5120412;27;20551;-72
2022/04/14 00:54:26;;;;;;;5.32;2.00;;;;;;;;;;5120537;27;20491;-72
2022/04/14 00:56:52;;;;;;;4.78;2.10;;;;;;;;;;5121672;27;20550;-72
2022/04/14 00:59:18;;;;;;;4.22;1.90;;;;;;;;;;5085942;27;20042;-72
2022/04/14 01:01:44;;;;;;;5.22;1.90;;;;;;;;;;5092516;28;20118;-71
2022/04/14 01:04:11;;;;;;;5.78;2.17;;;;;;;;;;5082687;28;20134;-71
2022/04/14 01:06:38;;;;;;;7.25;2.38;;;;;;;;;;5101657;28;20081;-72
2022/04/14 01:09:19;;;;;;;5.22;1.95;;;;;;;;;;5082429;28;20472;-71
2022/04/14 01:11:45;;;;;;;5.55;2.65;;;;;;;;;;5101672;28;20388;-71
2022/04/14 01:14:28;;;;;;;6.30;2.08;;;;;;;;;;5081751;28;20332;-71
2022/04/14 01:16:55;;;;;;;5.72;1.98;;;;;;;;;;5082679;28;20107;-71
2022/04/14 01:19:21;;;;;;;5.10;2.10;;;;;;;;;;5066140;28;20040;-71
2022/04/14 01:21:53;;;;;;;4.90;2.00;;;;;;;;;;5082439;28;20045;-72
2022/04/14 01:24:19;;;;;;;6.80;1.98;;;;;;;;;;5082583;28;20039;-71
2022/04/14 01:26:45;;;;;;;5.97;2.47;;;;;;;;;;5078671;28;20066;-71
2022/04/14 01:29:22;;;;;;;5.65;2.10;;;;;;;;;;5089942;28;20054;-71
2022/04/14 01:31:48;;;;;;;5.13;2.05;;;;;;;;;;5097561;28;20775;-71
2022/04/14 01:34:14;;;;;;;5.10;2.00;;;;;;;;;;5099006;28;20047;-71
2022/04/14 01:36:40;;;;;;;5.45;2.00;;;;;;;;;;5070319;28;20043;-74
2022/04/14 01:39:08;;;;;;;5.53;2.28;;;;;;;;;;5077888;28;20434;-71
2022/04/14 01:41:34;;;;;;;6.53;2.35;;;;;;;;;;5099462;28;20039;-71
2022/04/14 01:44:00;;;;;;;6.30;2.33;;;;;;;;;;5099061;28;20048;-73
2022/04/14 01:46:26;;;;;;;5.63;2.10;;;;;;;;;;5099013;28;20043;-71
2022/04/14 01:48:52;;;;;;;6.03;2.22;;;;;;;;;;5098822;28;20123;-71
2022/04/14 01:51:19;;;;;;;5.18;2.30;;;;;;;;;;5099326;28;20124;-72
2022/04/14 01:53:45;;;;;;;6.35;2.30;;;;;;;;;;5081788;28;20067;-71
2022/04/14 01:56:11;;;;;;;7.35;2.42;;;;;;;;;;5099071;28;20043;-72
2022/04/14 01:58:37;;;;;;;5.20;2.30;;;;;;;;;;5082151;28;20348;-71
2022/04/14 02:01:03;;;;;;;7.30;2.55;;;;;;;;;;5098853;28;20112;-71
2022/04/14 02:03:29;;;;;;;6.10;2.50;;;;;;;;;;5081918;28;20050;-72
2022/04/14 02:05:55;;;;;;;7.30;2.22;;;;;;;;;;5098479;28;20039;-71
2022/04/14 02:08:21;;;;;;;7.05;2.65;;;;;;;;;;5098748;28;20043;-71
2022/04/14 02:10:47;;;;;;;6.35;2.53;;;;;;;;;;5099494;28;20035;-71
2022/04/14 02:13:13;;;;;;;5.10;2.10;;;;;;;;;;5097413;28;20131;-71
2022/04/14 02:15:39;;;;;;;6.07;2.30;;;;;;;;;;5098911;28;20095;-72
2022/04/14 02:18:05;;;;;;;7.25;2.42;;;;;;;;;;5098648;28;20043;-72
2022/04/14 02:20:31;;;;;;;5.53;2.50;;;;;;;;;;5081504;28;20039;-71
2022/04/14 02:22:57;;;;;;;6.60;2.90;;;;;;;;;;5098472;28;20040;-71
2022/04/14 02:25:23;;;;;;;5.80;2.40;;;;;;;;;;5098930;28;20036;-72
2022/04/14 02:27:49;;;;;;;5.57;2.42;;;;;;;;;;5098769;28;20213;-71
2022/04/14 02:30:15;;;;;;;5.75;2.50;;;;;;;;;;5097678;28;20039;-71
2022/04/14 02:32:41;;;;;;;5.40;2.60;;;;;;;;;;5098017;28;20046;-72
2022/04/14 02:35:07;;;;;;;5.68;2.55;;;;;;;;;;5097777;28;20044;-71
2022/04/14 02:37:33;;;;;;;5.82;2.28;;;;;;;;;;5097973;28;20172;-71
2022/04/14 02:39:59;;;;;;;5.35;2.63;;;;;;;;;;5098096;28;20039;-71
2022/04/14 02:42:25;;;;;;;5.95;2.63;;;;;;;;;;5098445;28;20046;-71
2022/04/14 02:44:51;;;;;;;5.30;2.55;;;;;;;;;;5098320;28;20066;-71
2022/04/14 02:47:17;;;;;;;5.88;2.40;;;;;;;;;;5097975;28;20066;-71
2022/04/14 02:49:43;;;;;;;5.40;2.55;;;;;;;;;;5097737;28;20130;-71
2022/04/14 02:52:09;;;;;;;5.80;2.47;;;;;;;;;;5098368;28;20329;-71
2022/04/14 02:54:37;;;;;;;7.60;2.90;;;;;;;;;;5080751;28;20040;-71
2022/04/14 02:57:07;;;;;;;6.38;2.50;;;;;;;;;;5098270;28;20415;-71
2022/04/14 02:59:33;;;;;;;6.70;2.90;;;;;;;;;;5098070;28;20534;-71
2022/04/14 03:01:59;;;;;;;5.57;2.60;;;;;;;;;;5080993;28;20135;-71
2022/04/14 03:04:26;;;;;;;7.00;2.75;;;;;;;;;;5097184;28;20206;-71
2022/04/14 03:06:52;;;;;;;5.88;2.50;;;;;;;;;;5097831;28;20040;-72
2022/04/14 03:09:18;;;;;;;6.80;2.88;;;;;;;;;;5097492;28;20459;-71
2022/04/14 03:11:44;;;;;;;5.10;2.40;;;;;;;;;;5097291;28;20050;-71
2022/04/14 03:14:10;;;;;;;5.38;2.88;;;;;;;;;;5097656;28;20075;-71
2022/04/14 03:16:36;;;;;;;6.72;3.08;;;;;;;;;;5080200;28;20039;-71
2022/04/14 03:19:02;;;;;;;6.28;3.08;;;;;;;;;;5097087;28;20468;-71
2022/04/14 03:21:29;;;;;;;6.05;3.40;;;;;;;;;;5097802;28;20268;-70
2022/04/14 03:23:55;;;;;;;7.72;2.92;;;;;;;;;;5097068;28;20048;-71
2022/04/14 03:26:21;;;;;;;6.10;3.22;;;;;;;;;;5098128;28;20131;-71
2022/04/14 03:28:47;;;;;;;6.68;3.05;;;;;;;;;;5096506;28;20220;-71
2022/04/14 03:31:12;;;;;;;6.40;2.78;;;;;;;;;;5098194;28;20150;-71
2022/04/14 03:33:38;;;;;;;6.88;3.10;;;;;;;;;;5097055;28;20040;-72
2022/04/14 03:36:05;;;;;;;7.82;3.17;;;;;;;;;;5097062;28;20070;-71
2022/04/14 03:38:31;;;;;;;6.78;3.53;;;;;;;;;;5097907;28;20170;-71
2022/04/14 03:40:59;;;;;;;5.97;2.85;;;;;;;;;;5097184;28;20088;-71
2022/04/14 03:43:25;;;;;;;5.70;2.75;;;;;;;;;;5080419;28;20585;-71
2022/04/14 03:45:51;;;;;;;7.75;3.38;;;;;;;;;;5097563;28;20085;-71
2022/04/14 03:48:17;;;;;;;8.40;4.13;;;;;;;;;;5097246;28;20296;-71
2022/04/14 03:50:43;;;;;;;6.82;3.45;;;;;;;;;;5097478;28;20071;-71
2022/04/14 03:53:09;;;;;;;6.22;3.13;;;;;;;;;;5097123;28;20097;-71
2022/04/14 03:55:35;;;;;;;7.63;3.25;;;;;;;;;;5097990;28;20473;-71
2022/04/14 03:58:01;;;;;;;7.68;3.75;;;;;;;;;;5080233;28;20467;-71
2022/04/14 04:00:27;;;;;;;8.70;3.78;;;;;;;;;;5080375;28;20040;-71
2022/04/14 04:02:53;;;;;;;7.25;3.47;;;;;;;;;;5097373;28;20066;-71
2022/04/14 04:05:19;;;;;;;7.32;3.35;;;;;;;;;;5098723;28;20035;-72
2022/04/14 04:07:45;;;;;;;7.20;3.38;;;;;;;;;;5096823;28;20039;-71
2022/04/14 04:10:12;;;;;;;6.07;3.10;;;;;;;;;;5097260;28;20067;-72
2022/04/14 04:12:38;;;;;;;6.82;3.30;;;;;;;;;;5096855;28;20131;-72
2022/04/14 04:15:04;;;;;;;8.13;4.22;;;;;;;;;;5098810;28;20479;-71
2022/04/14 04:17:30;;;;;;;7.30;3.75;;;;;;;;;;5096465;28;20071;-71
2022/04/14 04:19:56;;;;;;;8.15;3.72;;;;;;;;;;5097149;28;20534;-71
2022/04/14 04:22:22;;;;;;;7.68;3.50;;;;;;;;;;5096955;28;20138;-71
2022/04/14 04:24:48;;;;;;;7.18;3.70;;;;;;;;;;5097149;28;20055;-71
2022/04/14 04:27:14;;;;;;;9.18;4.15;;;;;;;;;;5096323;28;20416;-71
2022/04/14 04:29:40;;;;;;;8.05;4.25;;;;;;;;;;5095908;28;20051;-71
2022/04/14 04:32:06;;;;;;;6.85;3.72;;;;;;;;;;5080531;28;20040;-71
2022/04/14 04:34:32;;;;;;;8.65;3.90;;;;;;;;;;5079735;28;20517;-71
2022/04/14 04:36:58;;;;;;;6.50;3.65;;;;;;;;;;5079826;28;20043;-71
2022/04/14 04:39:24;;;;;;;7.22;4.10;;;;;;;;;;5079767;28;20047;-71
2022/04/14 04:41:50;;;;;;;7.63;4.20;;;;;;;;;;5063312;28;20199;-71
2022/04/14 04:44:16;;;;;;;8.20;4.18;;;;;;;;;;5079997;28;20131;-71
2022/04/14 04:46:42;;;;;;;8.55;4.18;;;;;;;;;;5079903;28;20698;-71
2022/04/14 04:49:08;;;;;;;7.65;4.13;;;;;;;;;;5062564;28;20043;-71
2022/04/14 04:51:34;;;;;;;7.25;4.20;;;;;;;;;;5063374;28;20279;-71
2022/04/14 04:54:00;;;;;;;9.60;4.25;;;;;;;;;;5079829;28;20207;-71
2022/04/14 04:56:26;;;;;;;7.63;4.25;;;;;;;;;;5063075;28;20097;-71
2022/04/14 04:58:52;;;;;;;9.45;5.03;;;;;;;;;;5063012;28;20344;-71
2022/04/14 05:01:18;;;;;;;9.48;4.68;;;;;;;;;;5079497;28;20391;-71
2022/04/14 05:03:44;;;;;;;8.43;4.30;;;;;;;;;;5063079;28;20264;-71
2022/04/14 05:06:10;;;;;;;8.05;3.90;;;;;;;;;;5062943;28;20473;-71
2022/04/14 05:08:36;;;;;;;8.32;4.57;;;;;;;;;;5062787;28;20050;-71
2022/04/14 05:11:02;;;;;;;7.95;3.97;;;;;;;;;;5079505;28;20059;-71
2022/04/14 05:13:28;;;;;;;8.25;4.85;;;;;;;;;;5079794;28;20040;-72
2022/04/14 05:15:54;;;;;;;8.43;4.85;;;;;;;;;;5079537;28;20054;-71
2022/04/14 05:18:20;;;;;;;7.38;4.38;;;;;;;;;;5079791;28;20055;-72
2022/04/14 05:20:46;;;;;;;7.97;4.70;;;;;;;;;;5080804;28;20581;-71
2022/04/14 05:23:12;;;;;;;9.45;4.90;;;;;;;;;;5079888;28;20112;-71
2022/04/14 05:25:41;;;;;;;8.77;4.38;;;;;;;;;;5079106;28;20240;-71
2022/04/14 05:28:07;;;;;;;7.85;4.38;;;;;;;;;;5079063;28;20044;-71
2022/04/14 05:30:34;;;;;;;7.82;4.18;;;;;;;;;;5080055;28;20070;-71
2022/04/14 05:33:00;;;;;;;10.75;5.30;;;;;;;;;;5079306;28;20532;-71
2022/04/14 05:35:26;;;;;;;8.93;4.85;;;;;;;;;;5062635;28;20123;-71
2022/04/14 05:37:52;;;;;;;8.85;4.30;;;;;;;;;;5079099;28;20197;-71
2022/04/14 05:40:18;;;;;;;8.80;4.60;;;;;;;;;;5079451;28;20380;-71
2022/04/14 05:42:46;;;;;;;8.80;5.03;;;;;;;;;;5062026;28;20044;-72
2022/04/14 05:45:15;;;;;;;10.02;5.30;;;;;;;;;;5079596;28;20447;-70
2022/04/14 05:47:41;;;;;;;10.82;5.32;;;;;;;;;;5079063;28;20631;-70
2022/04/14 05:50:07;;;;;;;8.88;5.13;;;;;;;;;;5079351;28;20105;-70
2022/04/14 05:52:33;;;;;;;10.60;5.05;;;;;;;;;;5080569;28;20047;-70
2022/04/14 05:55:01;;;;;;;11.57;5.65;;;;;;;;;;5079207;28;20386;-70
2022/04/14 05:57:28;;;;;;;10.52;4.95;;;;;;;;;;5062209;28;20331;-70
2022/04/14 05:59:54;;;;;;;11.45;5.55;;;;;;;;;;5078986;28;20071;-70
2022/04/14 06:02:20;;;;;;;9.50;4.97;;;;;;;;;;5080195;28;20516;-70
2022/04/14 06:04:46;;;;;;;13.85;5.38;;;;;;;;;;5088975;28;20314;-71
2022/04/14 06:07:12;;;;;;;9.45;4.75;;;;;;;;;;5101025;27;20127;-71
2022/04/14 06:09:38;;;;;;;9.57;4.47;;;;;;;;;;5100947;27;20115;-70
2022/04/14 06:12:04;;;;;;;11.20;5.60;;;;;;;;;;5099069;28;20536;-70
2022/04/14 06:14:33;;;;;;;8.00;4.72;;;;;;;;;;5098821;28;20619;-70
2022/04/14 06:16:59;;;;;;;9.32;4.63;;;;;;;;;;5099405;28;20609;-71
2022/04/14 06:19:25;;;;;;;13.00;5.78;;;;;;;;;;5099337;28;20062;-71
2022/04/14 06:21:51;;;;;;;13.40;6.28;;;;;;;;;;5097982;28;20043;-70
2022/04/14 06:24:17;;;;;;;12.15;5.90;;;;;;;;;;5092193;28;20063;-70
2022/04/14 06:26:43;;;;;;;11.90;5.85;;;;;;;;;;5078420;28;20060;-71
2022/04/14 06:29:09;;;;;;;12.30;5.63;;;;;;;;;;5078179;28;20059;-70
2022/04/14 06:31:37;;;;;;;9.63;5.35;;;;;;;;;;5078660;28;20032;-70
2022/04/14 06:34:03;;;;;;;10.48;5.70;;;;;;;;;;5077711;28;20040;-70
2022/04/14 06:36:29;;;;;;;10.18;5.65;;;;;;;;;;5078248;28;20282;-70
2022/04/14 06:38:55;;;;;;;11.65;5.70;;;;;;;;;;5077991;28;20085;-70
2022/04/14 06:41:21;;;;;;;10.65;6.00;;;;;;;;;;5064865;28;20513;-70
2022/04/14 06:43:49;;;;;;;19.02;5.47;;;;;;;;;;5099892;28;20044;-71
2022/04/14 06:46:15;;;;;;;9.20;5.13;;;;;;;;;;5098951;28;20504;-71
2022/04/14 06:48:41;;;;;;;12.30;5.57;;;;;;;;;;5098591;28;20456;-71
2022/04/14 06:51:07;;;;;;;9.85;5.85;;;;;;;;;;5080979;28;20488;-70
2022/04/14 06:53:34;;;;;;;13.80;6.32;;;;;;;;;;5097901;28;20356;-71
2022/04/14 06:56:00;;;;;;;9.13;5.00;;;;;;;;;;5097816;28;20289;-71
2022/04/14 06:58:26;;;;;;;10.45;5.38;;;;;;;;;;5098166;28;20209;-70
2022/04/14 07:00:52;;;;;;;8.48;4.60;;;;;;;;;;5081264;28;20119;-71
2022/04/14 07:03:21;;;;;;;9.70;5.18;;;;;;;;;;5097946;28;20484;-71
2022/04/14 07:05:47;;;;;;;8.30;4.93;;;;;;;;;;5097815;28;20416;-70
2022/04/14 07:08:13;;;;;;;8.43;4.90;;;;;;;;;;5081269;28;20539;-71
2022/04/14 07:10:40;;;;;;;9.50;4.93;;;;;;;;;;5098364;28;20454;-72
2022/04/14 07:13:06;;;;;;;9.10;5.38;;;;;;;;;;5098287;28;20062;-71
2022/04/14 07:15:32;;;;;;;9.07;4.75;;;;;;;;;;5097667;28;20219;-71
2022/04/14 07:18:00;;;;;;;10.05;5.15;;;;;;;;;;5081100;28;20036;-71
2022/04/14 07:20:29;;;;;;;9.30;5.00;;;;;;;;;;5098109;28;20109;-71
2022/04/14 07:22:58;;;;;;;8.98;4.88;;;;;;;;;;5092823;28;20044;-71
2022/04/14 07:25:24;;;;;;;9.43;5.00;;;;;;;;;;5077167;28;20039;-71
2022/04/14 07:27:50;;;;;;;7.82;4.60;;;;;;;;;;5076866;28;20056;-71
2022/04/14 07:30:18;;;;;;;9.10;4.28;;;;;;;;;;5077665;28;20040;-71
2022/04/14 07:32:45;;;;;;;9.82;4.47;;;;;;;;;;5078797;28;20044;-71
2022/04/14 07:35:12;;;;;;;8.18;4.55;;;;;;;;;;5076718;28;20052;-71
2022/04/14 07:37:38;;;;;;;10.77;4.53;;;;;;;;;;5076529;28;20040;-71
2022/04/14 07:40:11;;;;;;;7.45;4.25;;;;;;;;;;5078542;28;20036;-72
2022/04/14 07:42:41;;;;;;;9.85;4.60;;;;;;;;;;5077202;28;20052;-72
2022/04/14 07:45:08;;;;;;;8.45;4.10;;;;;;;;;;5077766;28;20130;-71
2022/04/14 07:47:35;;;;;;;8.73;4.25;;;;;;;;;;5077177;28;20055;-72
2022/04/14 07:50:02;;;;;;;7.45;4.03;;;;;;;;;;5075886;28;20044;-71
2022/04/14 07:52:28;;;;;;;9.07;4.18;;;;;;;;;;5098540;28;20036;-71
2022/04/14 07:54:54;;;;;;;7.03;3.97;;;;;;;;;;5080147;28;20139;-72
2022/04/14 07:57:20;;;;;;;7.03;3.60;;;;;;;;;;5098525;28;20050;-72
2022/04/14 07:59:46;;;;;;;8.00;3.90;;;;;;;;;;5080258;28;20188;-71
2022/04/14 08:02:12;;;;;;;7.68;4.03;;;;;;;;;;5097332;28;20261;-71
2022/04/14 08:04:38;;;;;;;9.45;4.13;;;;;;;;;;5097237;28;20118;-72
2022/04/14 08:07:05;;;;;;;7.97;4.15;;;;;;;;;;5097137;28;20205;-72
2022/04/14 08:09:31;;;;;;;7.22;3.80;;;;;;;;;;5066120;28;20048;-71
2022/04/14 08:11:57;;;;;;;8.13;4.07;;;;;;;;;;5081058;28;20578;-71
2022/04/14 08:14:23;;;;;;;9.57;3.63;;;;;;;;;;5063473;28;20047;-71
2022/04/14 08:16:49;;;;;;;6.95;3.67;;;;;;;;;;5080805;28;20051;-72
2022/04/14 08:19:15;;;;;;;7.78;4.20;;;;;;;;;;5080472;28;20039;-73
2022/04/14 08:21:41;;;;;;;8.23;3.97;;;;;;;;;;5080825;28;20039;-71
2022/04/14 08:24:07;;;;;;;8.52;3.85;;;;;;;;;;5080952;28;20198;-71
2022/04/14 08:26:34;;;;;;;6.78;3.42;;;;;;;;;;5080195;28;20063;-72
2022/04/14 08:29:00;;;;;;;7.45;3.67;;;;;;;;;;5081660;28;20729;-72
2022/04/14 08:31:27;;;;;;;6.80;3.58;;;;;;;;;;5080139;28;20122;-72
2022/04/14 08:33:53;;;;;;;7.05;3.72;;;;;;;;;;5079784;28;20184;-72
2022/04/14 08:36:21;;;;;;;7.45;3.40;;;;;;;;;;5080489;28;20040;-72
2022/04/14 08:38:50;;;;;;;7.63;3.33;;;;;;;;;;5080103;28;20275;-72
2022/04/14 08:41:19;;;;;;;7.88;3.63;;;;;;;;;;5080261;28;20239;-72
2022/04/14 08:43:48;;;;;;;6.32;3.45;;;;;;;;;;5079473;28;20043;-72
2022/04/14 08:46:15;;;;;;;7.65;3.42;;;;;;;;;;5063901;28;20122;-73
2022/04/14 08:48:41;;;;;;;6.78;3.40;;;;;;;;;;5080314;28;20048;-72
2022/04/14 08:51:07;;;;;;;6.32;3.45;;;;;;;;;;5062671;28;20187;-72
2022/04/14 08:53:35;;;;;;;7.70;3.10;;;;;;;;;;5081883;28;20249;-72
2022/04/14 08:56:02;;;;;;;6.85;3.28;;;;;;;;;;5080033;28;20419;-72
2022/04/14 08:58:29;;;;;;;6.70;3.25;;;;;;;;;;5079804;28;20073;-72
2022/04/14 09:00:55;;;;;;;5.63;2.63;;;;;;;;;;5080183;28;20169;-72
2022/04/14 09:03:21;;;;;;;5.80;3.13;;;;;;;;;;5079740;28;20515;-72
2022/04/14 09:05:47;;;;;;;8.07;3.50;;;;;;;;;;5079715;28;20114;-72
2022/04/14 09:08:13;;;;;;;7.32;3.88;;;;;;;;;;5079849;28;20088;-72
2022/04/14 09:10:40;;;;;;;7.30;3.33;;;;;;;;;;5079671;28;20519;-72
2022/04/14 09:13:06;;;;;;;7.10;3.17;;;;;;;;;;5063138;28;20112;-72
2022/04/14 09:15:32;;;;;;;6.53;3.17;;;;;;;;;;5079596;28;20430;-72
2022/04/14 09:17:58;;;;;;;6.22;3.33;;;;;;;;;;5098404;28;20044;-72
2022/04/14 09:20:34;;;;;;;6.20;3.03;;;;;;;;;;5099934;28;20046;-72
2022/04/14 09:23:20;;;;;;;6.10;2.80;;;;;;;;;;5083181;28;20134;-72
2022/04/14 09:26:07;;;;;;;6.70;3.10;;;;;;;;;;5100257;28;20443;-72
2022/04/14 09:28:33;;;;;;;7.82;3.45;;;;;;;;;;5082181;28;20047;-72
2022/04/14 09:31:04;;;;;;;6.88;3.00;;;;;;;;;;5082506;28;20449;-72
2022/04/14 09:33:30;;;;;;;6.82;3.03;;;;;;;;;;5082123;28;20717;-72
2022/04/14 09:36:07;;;;;;;6.45;3.20;;;;;;;;;;5081800;28;20126;-72
2022/04/14 09:38:49;;;;;;;6.07;2.85;;;;;;;;;;5082317;28;20042;-72
2022/04/14 09:41:28;;;;;;;6.88;2.95;;;;;;;;;;5099322;28;20146;-72
2022/04/14 09:43:54;;;;;;;5.95;2.97;;;;;;;;;;5099494;28;20108;-71
2022/04/14 09:46:20;;;;;;;7.22;3.28;;;;;;;;;;5082356;28;20079;-71
2022/04/14 09:49:07;;;;;;;6.45;3.13;;;;;;;;;;5081636;28;20075;-72
2022/04/14 09:51:33;;;;;;;6.55;3.20;;;;;;;;;;5082044;28;20071;-72
2022/04/14 09:54:04;;;;;;;5.65;2.90;;;;;;;;;;5081712;28;20111;-71
2022/04/14 09:56:39;;;;;;;6.78;2.88;;;;;;;;;;5098717;28;20043;-72
2022/04/14 09:59:08;;;;;;;6.53;2.90;;;;;;;;;;5099465;28;20504;-71
2022/04/14 10:01:35;;;;;;;5.97;2.65;;;;;;;;;;5081538;28;20039;-71
2022/04/14 10:04:01;;;;;;;6.97;2.70;;;;;;;;;;5082002;28;20123;-71
2022/04/14 10:06:27;;;;;;;6.43;2.80;;;;;;;;;;5081427;28;20047;-71
2022/04/14 10:08:53;;;;;;;5.55;2.67;;;;;;;;;;5081577;28;20069;-72
2022/04/14 10:11:30;;;;;;;5.25;2.53;;;;;;;;;;5081957;28;20359;-72
2022/04/14 10:14:18;;;;;;;4.90;2.33;;;;;;;;;;5098408;28;20279;-71
2022/04/14 10:16:45;;;;;;;5.95;2.63;;;;;;;;;;5098617;28;20047;-71
2022/04/14 10:19:11;;;;;;;4.50;2.20;;;;;;;;;;5081673;28;20380;-72
2022/04/14 10:21:37;;;;;;;3.95;1.95;;;;;;;;;;5081832;28;20043;-71
2022/04/14 10:24:05;;;;;;;5.60;2.50;;;;;;;;;;5081538;28;20517;-71
2022/04/14 10:26:33;;;;;;;6.40;2.65;;;;;;;;;;5098569;28;20066;-71
2022/04/14 10:28:59;;;;;;;4.47;2.03;;;;;;;;;;5098536;28;20077;-71
2022/04/14 10:31:26;;;;;;;4.88;2.20;;;;;;;;;;5080953;28;20090;-71
2022/04/14 10:33:52;;;;;;;4.85;2.30;;;;;;;;;;5081196;28;20123;-72
2022/04/14 10:36:18;;;;;;;5.05;2.20;;;;;;;;;;5081535;28;20388;-72
2022/04/14 10:38:45;;;;;;;5.05;2.20;;;;;;;;;;5084771;27;20325;-71
2022/04/14 10:41:15;;;;;;;4.57;1.90;;;;;;;;;;5084376;27;20035;-72
2022/04/14 10:43:42;;;;;;;4.72;2.10;;;;;;;;;;5101526;27;20532;-71
2022/04/14 10:46:08;;;;;;;4.78;1.75;;;;;;;;;;5101004;27;20043;-71
2022/04/14 10:48:35;;;;;;;4.45;1.88;;;;;;;;;;5101437;27;20111;-72
2022/04/14 10:51:18;;;;;;;5.57;2.33;;;;;;;;;;5101545;27;20384;-71
2022/04/14 10:54:04;;;;;;;5.25;2.13;;;;;;;;;;5094565;28;20214;-71
2022/04/14 10:56:42;;;;;;;4.20;1.65;;;;;;;;;;5080781;28;20043;-71
2022/04/14 10:59:12;;;;;;;4.65;1.67;;;;;;;;;;5063165;28;20523;-72
2022/04/14 11:04:27;;;;;;;6.32;2.08;;;;;;;;;;5080944;28;20210;-71
2022/04/14 11:06:54;;;;;;;5.13;1.90;;;;;;;;;;5063337;28;20095;-71
2022/04/14 11:09:39;;;;;;;5.32;2.13;;;;;;;;;;5080653;28;20043;-71
2022/04/14 11:12:04;;;;;;;;;;;;;;;;;;5081747;28;20138;-71
2022/04/14 11:14:38;;;;;;;4.20;1.67;;;;;;;;;;5080366;28;20504;-71
2022/04/14 11:17:04;;;;;;;4.47;1.60;;;;;;;;;;5080940;28;20249;-71
2022/04/14 11:19:31;;;;;;;4.70;1.90;;;;;;;;;;5080617;28;20369;-71
2022/04/14 11:24:39;;;;;;;4.40;1.70;;;;;;;;;;5080539;28;20050;-71
2022/04/14 11:27:22;;;;;;;4.30;1.70;;;;;;;;;;5080494;28;20094;-71
2022/04/14 11:29:53;;;;;;;5.38;2.00;;;;;;;;;;5080910;28;20044;-71
2022/04/14 11:32:37;;;;;;;3.72;1.50;;;;;;;;;;5063706;28;20044;-71
2022/04/14 11:35:03;;;;;;;;;;;;;;;;;;5081012;28;20066;-71
2022/04/14 11:37:40;;;;;;;4.00;1.50;;;;;;;;;;5080278;28;20376;-71
2022/04/14 11:40:10;;;;;;;3.90;1.50;;;;;;;;;;5080649;28;20249;-71
2022/04/14 11:42:36;;;;;;;4.88;1.77;;;;;;;;;;5081898;28;20112;-71
2022/04/14 11:45:03;;;;;;;4.45;1.52;;;;;;;;;;5084482;28;20122;-71
2022/04/14 11:47:29;;;;;;;4.65;1.80;;;;;;;;;;5084546;28;20116;-71
2022/04/14 11:49:55;;;;;;;3.50;1.45;;;;;;;;;;5067527;28;20050;-71
2022/04/14 11:52:22;;;;;;;3.80;1.40;;;;;;;;;;5084537;28;20039;-71
2022/04/14 11:54:49;;;;;;;3.67;1.58;;;;;;;;;;5084267;28;20132;-72
2022/04/14 11:57:19;;;;;;;4.57;1.48;;;;;;;;;;5084098;28;20066;-72
2022/04/14 11:59:47;;;;;;;3.28;1.30;;;;;;;;;;5084158;28;20135;-71
2022/04/14 12:02:15;;;;;;;3.20;1.40;;;;;;;;;;5067349;28;20043;-71
2022/04/14 12:04:43;;;;;;;3.65;1.30;;;;;;;;;;5084586;28;20413;-71
2022/04/14 12:07:09;;;;;;;4.00;1.63;;;;;;;;;;5084468;28;20435;-71
2022/04/14 12:09:37;;;;;;;3.33;1.23;;;;;;;;;;5084257;28;20040;-71
2022/04/14 12:12:12;;;;;;;4.10;1.30;;;;;;;;;;5085823;28;20414;-73
2022/04/14 12:14:46;;;;;;;5.78;1.50;;;;;;;;;;5085659;27;20039;-72
2022/04/14 12:17:13;;;;;;;4.60;1.52;;;;;;;;;;5067089;27;20043;-73
2022/04/14 12:19:40;;;;;;;5.68;1.80;;;;;;;;;;5072018;27;20082;-75
2022/04/14 12:22:06;;;;;;;4.72;1.30;;;;;;;;;;5098803;27;20066;-75
2022/04/14 12:24:32;;;;;;;8.57;1.70;;;;;;;;;;5107689;27;20090;-74
2022/04/14 12:26:58;;;;;;;10.60;1.98;;;;;;;;;;5106126;27;20099;-74
2022/04/14 12:29:25;;;;;;;8.93;1.50;;;;;;;;;;5086471;27;20153;-74
2022/04/14 12:31:55;;;;;;;6.82;1.70;;;;;;;;;;5105172;27;20381;-74
2022/04/14 12:34:22;;;;;;;9.65;1.88;;;;;;;;;;5109091;27;20100;-74
2022/04/14 12:36:48;;;;;;;8.52;2.45;;;;;;;;;;5119773;27;20280;-75
2022/04/14 12:39:19;;;;;;;7.82;1.80;;;;;;;;;;5100499;27;20488;-75
2022/04/14 12:41:45;;;;;;;8.65;1.70;;;;;;;;;;5086348;28;20124;-75
2022/04/14 12:44:16;;;;;;;7.43;1.80;;;;;;;;;;5085757;28;20039;-75
2022/04/14 12:46:42;;;;;;;7.60;1.73;;;;;;;;;;5084955;28;20043;-74
2022/04/14 12:49:17;;;;;;;6.18;2.00;;;;;;;;;;5082960;28;20044;-75
2022/04/14 12:52:05;;;;;;;8.23;1.73;;;;;;;;;;5066736;28;20032;-75
2022/04/14 12:54:33;;;;;;;5.78;1.40;;;;;;;;;;5082377;28;20476;-75
2022/04/14 12:57:01;;;;;;;7.32;1.38;;;;;;;;;;5083557;28;20040;-75
2022/04/14 12:59:27;;;;;;;5.50;1.50;;;;;;;;;;5083210;28;20046;-75
2022/04/14 13:02:11;;;;;;;5.45;1.27;;;;;;;;;;5083743;28;20422;-75
2022/04/14 13:04:41;;;;;;;5.68;1.45;;;;;;;;;;5083703;28;20062;-75
2022/04/14 13:07:14;;;;;;;9.27;1.63;;;;;;;;;;5083306;28;20251;-75
2022/04/14 13:10:00;;;;;;;5.65;1.40;;;;;;;;;;5082503;28;20520;-74
2022/04/14 13:12:41;;;;;;;4.95;1.48;;;;;;;;;;5082542;28;20063;-74
2022/04/14 13:15:11;;;;;;;7.32;1.40;;;;;;;;;;5103245;27;20126;-74
2022/04/14 13:17:38;;;;;;;5.22;1.30;;;;;;;;;;5103122;27;20093;-73
2022/04/14 13:20:11;;;;;;;6.55;1.42;;;;;;;;;;5103222;27;20039;-74
2022/04/14 13:22:38;;;;;;;6.28;1.67;;;;;;;;;;5102606;27;20670;-74
2022/04/14 13:25:05;;;;;;;5.72;1.50;;;;;;;;;;5086078;27;20039;-74
2022/04/14 13:27:31;;;;;;;8.65;1.70;;;;;;;;;;5102763;27;20118;-73
2022/04/14 13:29:57;;;;;;;5.10;1.40;;;;;;;;;;5103086;27;20419;-73
2022/04/14 13:32:23;;;;;;;5.57;1.40;;;;;;;;;;5082618;28;20477;-74
2022/04/14 13:34:49;;;;;;;5.03;1.40;;;;;;;;;;5106404;27;20074;-73
2022/04/14 13:37:15;;;;;;;4.50;1.40;;;;;;;;;;5119731;27;20272;-74
2022/04/14 13:39:41;;;;;;;6.70;1.50;;;;;;;;;;5107739;27;20253;-75
2022/04/14 13:42:07;;;;;;;3.72;1.30;;;;;;;;;;5103192;27;20042;-75
2022/04/14 13:44:33;;;;;;;4.43;1.30;;;;;;;;;;5102620;27;20039;-74
2022/04/14 13:46:59;;;;;;;3.90;1.27;;;;;;;;;;5083099;28;20112;-73
2022/04/14 13:49:25;;;;;;;4.05;1.38;;;;;;;;;;5082418;28;20071;-74
2022/04/14 13:51:52;;;;;;;5.00;1.42;;;;;;;;;;5082447;28;20075;-74
2022/04/14 13:54:18;;;;;;;4.78;1.42;;;;;;;;;;5081576;28;20114;-73
2022/04/14 13:56:44;;;;;;;4.50;1.30;;;;;;;;;;5082128;28;20035;-74
2022/04/14 13:59:10;;;;;;;6.35;1.30;;;;;;;;;;5064317;28;20039;-73
2022/04/14 14:01:37;;;;;;;4.47;1.45;;;;;;;;;;5081489;28;20044;-74
2022/04/14 14:04:04;;;;;;;5.65;1.30;;;;;;;;;;5082018;28;20515;-74
2022/04/14 14:06:30;;;;;;;4.55;1.20;;;;;;;;;;5080984;28;20106;-73
2022/04/14 14:08:56;;;;;;;4.65;1.15;;;;;;;;;;5081817;28;20156;-74
2022/04/14 14:11:23;;;;;;;3.50;1.20;;;;;;;;;;5082122;28;20042;-74
2022/04/14 14:13:50;;;;;;;3.33;1.20;;;;;;;;;;5081238;28;20047;-74
2022/04/14 14:16:16;;;;;;;4.25;1.33;;;;;;;;;;5082153;28;20063;-74
2022/04/14 14:18:43;;;;;;;4.70;1.45;;;;;;;;;;5064948;28;20043;-74
2022/04/14 14:21:10;;;;;;;4.55;1.50;;;;;;;;;;5081508;28;20054;-74
2022/04/14 14:23:36;;;;;;;6.80;2.05;;;;;;;;;;5081300;28;20050;-73
2022/04/14 14:26:02;;;;;;;4.93;1.85;;;;;;;;;;5064731;28;20284;-74
2022/04/14 14:28:28;;;;;;;4.13;1.75;;;;;;;;;;5083499;27;20051;-74
2022/04/14 14:30:54;;;;;;;4.75;1.40;;;;;;;;;;5101577;27;20377;-73
2022/04/14 14:33:20;;;;;;;6.00;1.50;;;;;;;;;;5101810;27;20049;-74
2022/04/14 14:35:46;;;;;;;7.25;1.50;;;;;;;;;;5101798;27;20275;-73
2022/04/14 14:38:12;;;;;;;3.15;1.25;;;;;;;;;;5084526;27;20243;-74
2022/04/14 14:40:38;;;;;;;6.00;2.35;;;;;;;;;;5101371;27;20066;-74
2022/04/14 14:43:04;;;;;;;4.88;1.60;;;;;;;;;;5101630;27;20426;-74
2022/04/14 14:45:30;;;;;;;4.07;1.48;;;;;;;;;;5101330;27;20569;-75
2022/04/14 14:47:56;;;;;;;5.15;1.40;;;;;;;;;;5101717;27;20043;-75
2022/04/14 14:50:22;;;;;;;4.55;1.38;;;;;;;;;;5084711;27;20078;-75